Saint-Hyacinthe, Canada
Current Conditions -  °F | °C
As of 1:00 PM on Sunday 21 Dec 2014 (Local Time) from CYHU Reporting Station
Overcast Overcast  
Wind Chill:   Ceiling: 1900
Heat Index: 16°   Visibility: 9mi
Dew Point: 14°   Wind: 6mph
Humidity: 93%   Direction: 50°NE
Pressure: 30.38"   Gusts: NA
Location:  45.62°N, 72.95°W
Report Text: CYHU 211800Z AUTO 05005KT 9SM SCT008 OVC019 M09/M10 A3038 RMK SLP291
Loading
Personal Weather Stations






























Interactive Weather Map New forecast layout! Learn more

10-Day Weather Forecast

Advertisements
Track Severe Weather on mobile